sensor_id;sensor_type;location;lat;lon;timestamp;pressure;altitude;pressure_sealevel;temperature;humidity
31775;BME280;66189;49.000;11.640;2023-02-10T00:01:35;97613.41;;;-5.81;76.50
31775;BME280;66189;49.000;11.640;2023-02-10T00:03:36;97615.63;;;-5.85;77.23
31775;BME280;66189;49.000;11.640;2023-02-10T00:05:37;97623.94;;;-5.95;75.84
31775;BME280;66189;49.000;11.640;2023-02-10T00:07:37;97617.97;;;-6.02;76.88
31775;BME280;66189;49.000;11.640;2023-02-10T00:09:38;97633.69;;;-6.02;76.73
31775;BME280;66189;49.000;11.640;2023-02-10T00:11:38;97637.50;;;-5.98;76.57
31775;BME280;66189;49.000;11.640;2023-02-10T00:13:57;97636.69;;;-5.98;77.07
31775;BME280;66189;49.000;11.640;2023-02-10T00:15:59;97634.63;;;-5.96;77.30
31775;BME280;66189;49.000;11.640;2023-02-10T00:18:00;97638.84;;;-5.95;76.53
31775;BME280;66189;49.000;11.640;2023-02-10T00:20:01;97639.88;;;-5.96;78.09
31775;BME280;66189;49.000;11.640;2023-02-10T00:22:02;97640.47;;;-5.94;78.09
31775;BME280;66189;49.000;11.640;2023-02-10T00:24:03;97644.50;;;-5.92;78.17
31775;BME280;66189;49.000;11.640;2023-02-10T00:26:05;97647.69;;;-5.83;78.16
31775;BME280;66189;49.000;11.640;2023-02-10T00:28:06;97653.09;;;-5.78;78.55
31775;BME280;66189;49.000;11.640;2023-02-10T00:30:07;97642.53;;;-5.64;78.09
31775;BME280;66189;49.000;11.640;2023-02-10T00:32:08;97645.94;;;-5.32;77.56
31775;BME280;66189;49.000;11.640;2023-02-10T00:34:16;97644.47;;;-5.53;78.42
31775;BME280;66189;49.000;11.640;2023-02-10T00:36:17;97652.81;;;-5.69;77.81
31775;BME280;66189;49.000;11.640;2023-02-10T00:38:17;97649.06;;;-5.80;77.49
31775;BME280;66189;49.000;11.640;2023-02-10T00:40:20;97648.25;;;-5.81;77.80
31775;BME280;66189;49.000;11.640;2023-02-10T00:42:20;97653.34;;;-5.93;77.95
31775;BME280;66189;49.000;11.640;2023-02-10T00:44:21;97651.16;;;-5.96;78.15
31775;BME280;66189;49.000;11.640;2023-02-10T00:46:22;97657.44;;;-5.97;77.58
31775;BME280;66189;49.000;11.640;2023-02-10T00:48:23;97655.66;;;-6.03;77.56
31775;BME280;66189;49.000;11.640;2023-02-10T00:50:23;97651.44;;;-6.04;77.20
31775;BME280;66189;49.000;11.640;2023-02-10T00:52:24;97650.81;;;-6.06;76.16
31775;BME280;66189;49.000;11.640;2023-02-10T00:54:26;97651.44;;;-6.11;76.88
31775;BME280;66189;49.000;11.640;2023-02-10T00:56:26;97647.41;;;-6.07;77.85
31775;BME280;66189;49.000;11.640;2023-02-10T00:58:27;97648.22;;;-6.06;77.24
31775;BME280;66189;49.000;11.640;2023-02-10T01:00:27;97646.94;;;-5.97;78.38
31775;BME280;66189;49.000;11.640;2023-02-10T01:02:28;97648.97;;;-5.99;78.76
31775;BME280;66189;49.000;11.640;2023-02-10T01:04:28;97653.03;;;-6.03;77.70
31775;BME280;66189;49.000;11.640;2023-02-10T01:06:29;97651.03;;;-6.08;77.06
31775;BME280;66189;49.000;11.640;2023-02-10T01:08:29;97642.53;;;-6.03;78.02
31775;BME280;66189;49.000;11.640;2023-02-10T01:10:32;97646.09;;;-5.91;78.75
31775;BME280;66189;49.000;11.640;2023-02-10T01:12:34;97647.97;;;-5.98;79.08
31775;BME280;66189;49.000;11.640;2023-02-10T01:14:35;97641.97;;;-5.73;78.69
31775;BME280;66189;49.000;11.640;2023-02-10T01:16:36;97650.94;;;-5.87;79.36
31775;BME280;66189;49.000;11.640;2023-02-10T01:18:38;97651.13;;;-5.89;79.66
31775;BME280;66189;49.000;11.640;2023-02-10T01:20:40;97648.25;;;-5.81;79.44
31775;BME280;66189;49.000;11.640;2023-02-10T01:22:41;97647.28;;;-5.86;79.73
31775;BME280;66189;49.000;11.640;2023-02-10T01:24:41;97646.28;;;-5.85;78.92
31775;BME280;66189;49.000;11.640;2023-02-10T01:26:42;97643.66;;;-5.85;78.57
31775;BME280;66189;49.000;11.640;2023-02-10T01:28:42;97651.31;;;-5.84;78.50
31775;BME280;66189;49.000;11.640;2023-02-10T01:30:44;97641.25;;;-5.87;78.41
31775;BME280;66189;49.000;11.640;2023-02-10T01:32:45;97643.66;;;-5.85;78.21
31775;BME280;66189;49.000;11.640;2023-02-10T01:34:45;97645.06;;;-5.90;79.00
31775;BME280;66189;49.000;11.640;2023-02-10T01:36:46;97641.44;;;-5.89;78.09
31775;BME280;66189;49.000;11.640;2023-02-10T01:38:47;97643.25;;;-5.89;78.25
31775;BME280;66189;49.000;11.640;2023-02-10T01:40:48;97639.63;;;-5.88;78.40
31775;BME280;66189;49.000;11.640;2023-02-10T01:42:49;97638.84;;;-5.89;78.16
31775;BME280;66189;49.000;11.640;2023-02-10T01:46:50;97645.69;;;-5.87;77.46
31775;BME280;66189;49.000;11.640;2023-02-10T01:48:51;97639.63;;;-5.88;77.42
31775;BME280;66189;49.000;11.640;2023-02-10T01:51:00;97640.84;;;-5.91;78.44
31775;BME280;66189;49.000;11.640;2023-02-10T01:53:02;97654.34;;;-5.87;78.31
31775;BME280;66189;49.000;11.640;2023-02-10T01:55:06;97649.09;;;-5.87;77.45
31775;BME280;66189;49.000;11.640;2023-02-10T01:57:08;97652.53;;;-5.86;77.56
31775;BME280;66189;49.000;11.640;2023-02-10T01:59:08;97653.94;;;-5.91;76.68
31775;BME280;66189;49.000;11.640;2023-02-10T02:01:10;97655.22;;;-6.00;76.25
31775;BME280;66189;49.000;11.640;2023-02-10T02:03:11;97653.63;;;-6.01;76.70
31775;BME280;66189;49.000;11.640;2023-02-10T02:05:42;97653.56;;;-5.94;77.41
31775;BME280;66189;49.000;11.640;2023-02-10T02:07:42;97647.75;;;-5.96;77.91
31775;BME280;66189;49.000;11.640;2023-02-10T02:09:45;97648.78;;;-5.97;78.63
31775;BME280;66189;49.000;11.640;2023-02-10T02:18:47;97654.06;;;-6.04;78.06
31775;BME280;66189;49.000;11.640;2023-02-10T02:24:31;97643.81;;;-6.12;77.11
31775;BME280;66189;49.000;11.640;2023-02-10T02:28:12;97655.09;;;-6.12;78.57
31775;BME280;66189;49.000;11.640;2023-02-10T02:30:46;97651.09;;;-6.21;78.54
31775;BME280;66189;49.000;11.640;2023-02-10T02:33:01;97650.09;;;-6.20;78.49
31775;BME280;66189;49.000;11.640;2023-02-10T02:35:06;97651.31;;;-6.29;77.91
31775;BME280;66189;49.000;11.640;2023-02-10T02:37:15;97649.09;;;-6.26;77.62
31775;BME280;66189;49.000;11.640;2023-02-10T02:39:17;97655.16;;;-6.32;76.84
31775;BME280;66189;49.000;11.640;2023-02-10T02:41:23;97661.25;;;-6.45;76.16
31775;BME280;66189;49.000;11.640;2023-02-10T02:43:24;97673.13;;;-6.49;76.65
31775;BME280;66189;49.000;11.640;2023-02-10T02:50:29;97671.38;;;-6.62;76.47
31775;BME280;66189;49.000;11.640;2023-02-10T02:55:34;97670.56;;;-6.69;76.96
31775;BME280;66189;49.000;11.640;2023-02-10T02:59:49;97674.19;;;-6.63;78.21
31775;BME280;66189;49.000;11.640;2023-02-10T03:01:56;97677.59;;;-6.63;77.54
31775;BME280;66189;49.000;11.640;2023-02-10T03:03:58;97677.41;;;-6.61;77.71
31775;BME280;66189;49.000;11.640;2023-02-10T03:06:02;97672.38;;;-6.63;78.57
31775;BME280;66189;49.000;11.640;2023-02-10T03:08:03;97676.59;;;-6.62;79.59
31775;BME280;66189;49.000;11.640;2023-02-10T03:10:04;97673.38;;;-6.64;78.79
31775;BME280;66189;49.000;11.640;2023-02-10T03:12:05;97671.78;;;-6.65;78.56
31775;BME280;66189;49.000;11.640;2023-02-10T03:14:06;97677.63;;;-6.69;77.37
31775;BME280;66189;49.000;11.640;2023-02-10T03:16:07;97673.38;;;-6.70;77.02
31775;BME280;66189;49.000;11.640;2023-02-10T03:18:07;97677.63;;;-6.83;77.69
31775;BME280;66189;49.000;11.640;2023-02-10T03:20:08;97672.78;;;-6.72;77.15
31775;BME280;66189;49.000;11.640;2023-02-10T03:22:08;97680.22;;;-6.76;77.19
31775;BME280;66189;49.000;11.640;2023-02-10T03:24:09;97673.19;;;-6.75;76.62
31775;BME280;66189;49.000;11.640;2023-02-10T03:26:09;97674.41;;;-6.78;76.66
31775;BME280;66189;49.000;11.640;2023-02-10T03:28:10;97679.63;;;-6.78;76.10
31775;BME280;66189;49.000;11.640;2023-02-10T03:30:10;97674.81;;;-6.81;76.36
31775;BME280;66189;49.000;11.640;2023-02-10T03:32:11;97678.22;;;-6.81;76.41
31775;BME280;66189;49.000;11.640;2023-02-10T03:34:11;97688.31;;;-6.98;76.48
31775;BME280;66189;49.000;11.640;2023-02-10T03:36:12;97688.31;;;-6.98;77.28
31775;BME280;66189;49.000;11.640;2023-02-10T03:38:13;97694.75;;;-7.00;77.79
31775;BME280;66189;49.000;11.640;2023-02-10T03:40:14;97700.78;;;-7.00;78.08
31775;BME280;66189;49.000;11.640;2023-02-10T03:42:15;97702.00;;;-7.02;78.60
31775;BME280;66189;49.000;11.640;2023-02-10T03:44:15;97703.41;;;-7.00;78.53
31775;BME280;66189;49.000;11.640;2023-02-10T03:46:16;97704.59;;;-7.02;76.91
31775;BME280;66189;49.000;11.640;2023-02-10T03:48:16;97706.44;;;-7.03;77.22
31775;BME280;66189;49.000;11.640;2023-02-10T03:50:17;97704.22;;;-7.06;76.77
31775;BME280;66189;49.000;11.640;2023-02-10T03:52:17;97699.38;;;-7.16;77.46
31775;BME280;66189;49.000;11.640;2023-02-10T03:54:17;97703.81;;;-7.16;78.32
31775;BME280;66189;49.000;11.640;2023-02-10T03:56:18;97702.59;;;-7.20;78.09
31775;BME280;66189;49.000;11.640;2023-02-10T03:58:19;97710.03;;;-7.17;76.63
31775;BME280;66189;49.000;11.640;2023-02-10T04:00:19;97707.41;;;-7.24;76.08
31775;BME280;66189;49.000;11.640;2023-02-10T04:02:20;97720.50;;;-7.24;77.00
31775;BME280;66189;49.000;11.640;2023-02-10T04:04:20;97713.25;;;-7.22;76.92
31775;BME280;66189;49.000;11.640;2023-02-10T04:06:21;97719.28;;;-7.21;77.58
31775;BME280;66189;49.000;11.640;2023-02-10T04:08:22;97731.53;;;-7.15;78.05
31775;BME280;66189;49.000;11.640;2023-02-10T04:10:22;97741.44;;;-7.10;78.59
31775;BME280;66189;49.000;11.640;2023-02-10T04:12:23;97734.34;;;-7.17;76.88
31775;BME280;66189;49.000;11.640;2023-02-10T04:14:23;97726.53;;;-7.23;76.88
31775;BME280;66189;49.000;11.640;2023-02-10T04:16:24;97723.31;;;-7.25;77.42
31775;BME280;66189;49.000;11.640;2023-02-10T04:18:27;97720.47;;;-7.30;77.71
31775;BME280;66189;49.000;11.640;2023-02-10T04:20:28;97720.25;;;-7.29;77.99
31775;BME280;66189;49.000;11.640;2023-02-10T04:22:28;97726.34;;;-7.08;77.74
31775;BME280;66189;49.000;11.640;2023-02-10T04:24:29;97726.31;;;-7.22;79.60
31775;BME280;66189;49.000;11.640;2023-02-10T04:26:29;97726.13;;;-7.07;80.64
31775;BME280;66189;49.000;11.640;2023-02-10T04:28:30;97723.13;;;-7.04;81.52
31775;BME280;66189;49.000;11.640;2023-02-10T04:30:30;97724.94;;;-7.04;82.24
31775;BME280;66189;49.000;11.640;2023-02-10T04:32:31;97724.94;;;-7.04;81.77
31775;BME280;66189;49.000;11.640;2023-02-10T04:34:31;97716.69;;;-7.01;80.47
31775;BME280;66189;49.000;11.640;2023-02-10T04:36:32;97718.06;;;-6.99;79.75
31775;BME280;66189;49.000;11.640;2023-02-10T04:38:32;97719.69;;;-6.98;79.85
31775;BME280;66189;49.000;11.640;2023-02-10T04:40:33;97718.06;;;-6.99;78.48
31775;BME280;66189;49.000;11.640;2023-02-10T04:42:33;97723.94;;;-6.97;78.00
31775;BME280;66189;49.000;11.640;2023-02-10T04:44:33;97722.91;;;-6.96;78.32
31775;BME280;66189;49.000;11.640;2023-02-10T04:46:34;97723.31;;;-6.99;78.13
31775;BME280;66189;49.000;11.640;2023-02-10T04:48:34;97725.94;;;-6.99;78.36
31775;BME280;66189;49.000;11.640;2023-02-10T04:50:36;97730.38;;;-6.99;77.50
31775;BME280;66189;49.000;11.640;2023-02-10T04:52:37;97728.94;;;-7.02;77.62
31775;BME280;66189;49.000;11.640;2023-02-10T04:54:37;97733.59;;;-7.04;76.90
31775;BME280;66189;49.000;11.640;2023-02-10T04:56:38;97736.19;;;-7.04;76.94
31775;BME280;66189;49.000;11.640;2023-02-10T04:58:38;97734.19;;;-7.02;77.78
31775;BME280;66189;49.000;11.640;2023-02-10T05:00:39;97742.44;;;-6.98;78.92
31775;BME280;66189;49.000;11.640;2023-02-10T05:02:40;97744.25;;;-6.99;79.21
31775;BME280;66189;49.000;11.640;2023-02-10T05:04:40;97747.28;;;-6.95;79.85
31775;BME280;66189;49.000;11.640;2023-02-10T05:06:41;97759.53;;;-6.96;78.39
31775;BME280;66189;49.000;11.640;2023-02-10T05:08:42;97747.47;;;-7.03;77.78
31775;BME280;66189;49.000;11.640;2023-02-10T05:10:43;97758.31;;;-7.13;77.30
31775;BME280;66189;49.000;11.640;2023-02-10T05:12:43;97761.53;;;-7.18;77.45
31775;BME280;66189;49.000;11.640;2023-02-10T05:14:46;97755.47;;;-7.18;77.12
31775;BME280;66189;49.000;11.640;2023-02-10T05:16:47;97756.50;;;-7.19;77.47
31775;BME280;66189;49.000;11.640;2023-02-10T05:18:47;97756.31;;;-7.18;77.07
31775;BME280;66189;49.000;11.640;2023-02-10T05:20:47;97759.72;;;-7.17;77.19
31775;BME280;66189;49.000;11.640;2023-02-10T05:22:48;97762.53;;;-7.19;76.99
31775;BME280;66189;49.000;11.640;2023-02-10T05:24:48;97757.09;;;-7.17;78.05
31775;BME280;66189;49.000;11.640;2023-02-10T05:26:51;97751.06;;;-7.18;78.11
31775;BME280;66189;49.000;11.640;2023-02-10T05:28:52;97759.13;;;-7.19;78.04
31775;BME280;66189;49.000;11.640;2023-02-10T05:30:53;97752.66;;;-7.23;77.35
31775;BME280;66189;49.000;11.640;2023-02-10T05:32:54;97752.66;;;-7.23;77.39
31775;BME280;66189;49.000;11.640;2023-02-10T05:34:54;97760.31;;;-7.22;78.26
31775;BME280;66189;49.000;11.640;2023-02-10T05:36:54;97760.50;;;-7.23;77.70
31775;BME280;66189;49.000;11.640;2023-02-10T05:38:55;97765.75;;;-7.23;77.36
31775;BME280;66189;49.000;11.640;2023-02-10T05:41:14;97765.53;;;-7.28;77.35
31775;BME280;66189;49.000;11.640;2023-02-10T05:43:14;97761.31;;;-7.29;77.13
31775;BME280;66189;49.000;11.640;2023-02-10T05:45:14;97766.53;;;-7.36;77.39
31775;BME280;66189;49.000;11.640;2023-02-10T05:47:15;97765.50;;;-7.42;77.72
31775;BME280;66189;49.000;11.640;2023-02-10T05:49:16;97774.72;;;-7.46;77.44
31775;BME280;66189;49.000;11.640;2023-02-10T05:51:17;97774.13;;;-7.48;77.00
31775;BME280;66189;49.000;11.640;2023-02-10T05:53:17;97774.34;;;-7.50;77.75
31775;BME280;66189;49.000;11.640;2023-02-10T05:55:18;97777.16;;;-7.51;77.54
31775;BME280;66189;49.000;11.640;2023-02-10T05:57:18;97779.75;;;-7.51;78.08
31775;BME280;66189;49.000;11.640;2023-02-10T05:59:19;97781.75;;;-7.53;77.55
31775;BME280;66189;49.000;11.640;2023-02-10T06:01:19;97777.09;;;-7.58;77.65
31775;BME280;66189;49.000;11.640;2023-02-10T06:03:20;97777.88;;;-7.64;77.45
31775;BME280;66189;49.000;11.640;2023-02-10T06:05:20;97784.53;;;-7.61;76.91
31775;BME280;66189;49.000;11.640;2023-02-10T06:07:20;97786.13;;;-7.67;77.80
31775;BME280;66189;49.000;11.640;2023-02-10T06:09:21;97797.16;;;-7.72;78.10
31775;BME280;66189;49.000;11.640;2023-02-10T06:11:22;97803.75;;;-7.76;77.73
31775;BME280;66189;49.000;11.640;2023-02-10T06:13:23;97800.63;;;-7.64;77.09
31775;BME280;66189;49.000;11.640;2023-02-10T06:15:23;97805.00;;;-7.72;77.16
31775;BME280;66189;49.000;11.640;2023-02-10T06:17:24;97806.38;;;-7.76;78.03
31775;BME280;66189;49.000;11.640;2023-02-10T06:19:26;97804.41;;;-7.74;77.18
31775;BME280;66189;49.000;11.640;2023-02-10T06:21:26;97806.81;;;-7.72;77.20
31775;BME280;66189;49.000;11.640;2023-02-10T06:23:27;97811.38;;;-7.81;77.07
31775;BME280;66189;49.000;11.640;2023-02-10T06:25:27;97812.00;;;-7.79;76.62
31775;BME280;66189;49.000;11.640;2023-02-10T06:27:28;97807.16;;;-7.82;78.64
31775;BME280;66189;49.000;11.640;2023-02-10T06:29:28;97811.59;;;-7.82;77.81
31775;BME280;66189;49.000;11.640;2023-02-10T06:31:28;97815.00;;;-7.82;77.87
31775;BME280;66189;49.000;11.640;2023-02-10T06:33:29;97819.97;;;-7.52;79.76
31775;BME280;66189;49.000;11.640;2023-02-10T06:35:30;97817.41;;;-7.39;80.08
31775;BME280;66189;49.000;11.640;2023-02-10T06:37:31;97820.63;;;-7.37;81.02
31775;BME280;66189;49.000;11.640;2023-02-10T06:39:31;97822.44;;;-7.37;80.46
31775;BME280;66189;49.000;11.640;2023-02-10T06:41:32;97821.63;;;-7.38;81.62
31775;BME280;66189;49.000;11.640;2023-02-10T06:43:32;97821.84;;;-7.33;81.75
31775;BME280;66189;49.000;11.640;2023-02-10T06:45:33;97820.25;;;-7.20;81.71
31775;BME280;66189;49.000;11.640;2023-02-10T06:47:35;97819.28;;;-7.19;81.61
31775;BME280;66189;49.000;11.640;2023-02-10T06:49:36;97826.72;;;-7.09;82.15
31775;BME280;66189;49.000;11.640;2023-02-10T06:51:36;97827.94;;;-7.05;81.48
31775;BME280;66189;49.000;11.640;2023-02-10T06:53:36;97828.94;;;-7.06;81.46
31775;BME280;66189;49.000;11.640;2023-02-10T06:55:37;97832.19;;;-7.04;81.01
31775;BME280;66189;49.000;11.640;2023-02-10T06:57:37;97837.22;;;-7.03;80.96
31775;BME280;66189;49.000;11.640;2023-02-10T06:59:38;97837.03;;;-7.01;80.13
31775;BME280;66189;49.000;11.640;2023-02-10T07:01:38;97845.47;;;-7.06;78.52
31775;BME280;66189;49.000;11.640;2023-02-10T07:03:39;97854.31;;;-7.07;77.11
31775;BME280;66189;49.000;11.640;2023-02-10T07:05:39;97845.66;;;-7.07;77.13
31775;BME280;66189;49.000;11.640;2023-02-10T07:07:40;97852.09;;;-7.03;77.56
31775;BME280;66189;49.000;11.640;2023-02-10T07:09:41;97852.91;;;-7.03;78.09
31775;BME280;66189;49.000;11.640;2023-02-10T07:11:41;97863.00;;;-7.00;78.55
31775;BME280;66189;49.000;11.640;2023-02-10T07:13:42;97865.59;;;-7.00;78.20
31775;BME280;66189;49.000;11.640;2023-02-10T07:15:43;97865.59;;;-7.00;77.85
31775;BME280;66189;49.000;11.640;2023-02-10T07:17:44;97872.03;;;-7.02;76.59
31775;BME280;66189;49.000;11.640;2023-02-10T07:19:44;97873.66;;;-6.94;76.91
31775;BME280;66189;49.000;11.640;2023-02-10T07:21:45;97874.28;;;-6.86;76.99
31775;BME280;66189;49.000;11.640;2023-02-10T07:23:45;97878.50;;;-6.85;76.25
31775;BME280;66189;49.000;11.640;2023-02-10T07:25:46;97874.28;;;-6.79;75.60
31775;BME280;66189;49.000;11.640;2023-02-10T07:27:46;97883.97;;;-6.80;75.27
31775;BME280;66189;49.000;11.640;2023-02-10T07:29:46;97877.53;;;-6.77;74.76
31775;BME280;66189;49.000;11.640;2023-02-10T07:31:47;97881.53;;;-6.81;75.33
31775;BME280;66189;49.000;11.640;2023-02-10T07:33:47;97890.81;;;-6.65;75.53
31775;BME280;66189;49.000;11.640;2023-02-10T07:35:48;97886.41;;;-6.51;74.96
31775;BME280;66189;49.000;11.640;2023-02-10T07:37:48;97889.44;;;-6.41;75.33
31775;BME280;66189;49.000;11.640;2023-02-10T07:39:49;97883.22;;;-6.33;76.26
31775;BME280;66189;49.000;11.640;2023-02-10T07:41:50;97885.03;;;-6.20;75.87
31775;BME280;66189;49.000;11.640;2023-02-10T07:43:52;97892.91;;;-6.07;75.33
31775;BME280;66189;49.000;11.640;2023-02-10T07:45:53;97885.63;;;-5.98;74.45
31775;BME280;66189;49.000;11.640;2023-02-10T07:47:53;97885.38;;;-5.83;74.74
31775;BME280;66189;49.000;11.640;2023-02-10T07:49:54;97888.78;;;-5.69;74.27
31775;BME280;66189;49.000;11.640;2023-02-10T07:51:55;97881.50;;;-5.61;74.87
31775;BME280;66189;49.000;11.640;2023-02-10T07:53:56;97888.53;;;-5.48;75.17
31775;BME280;66189;49.000;11.640;2023-02-10T07:55:59;97880.22;;;-5.38;74.83
31775;BME280;66189;49.000;11.640;2023-02-10T07:58:03;97887.06;;;-5.24;74.64
31775;BME280;66189;49.000;11.640;2023-02-10T08:00:06;97882.19;;;-5.20;76.36
31775;BME280;66189;49.000;11.640;2023-02-10T08:02:13;97871.81;;;-5.02;76.01
31775;BME280;66189;49.000;11.640;2023-02-10T08:04:13;97869.31;;;-4.90;74.40
31775;BME280;66189;49.000;11.640;2023-02-10T08:06:19;97875.69;;;-4.72;75.36
31775;BME280;66189;49.000;11.640;2023-02-10T08:08:20;97865.81;;;-4.77;73.83
31775;BME280;66189;49.000;11.640;2023-02-10T08:10:21;97870.31;;;-4.52;72.89
31775;BME280;66189;49.000;11.640;2023-02-10T08:12:22;97872.19;;;-4.34;73.45
31775;BME280;66189;49.000;11.640;2023-02-10T08:14:22;97874.47;;;-4.13;73.76
31775;BME280;66189;49.000;11.640;2023-02-10T08:16:24;97868.44;;;-3.95;72.02
31775;BME280;66189;49.000;11.640;2023-02-10T08:18:24;97869.44;;;-3.70;71.23
31775;BME280;66189;49.000;11.640;2023-02-10T08:20:25;97868.78;;;-3.47;71.22
31775;BME280;66189;49.000;11.640;2023-02-10T08:22:26;97868.47;;;-3.39;69.39
31775;BME280;66189;49.000;11.640;2023-02-10T08:24:26;97877.38;;;-3.03;69.04
31775;BME280;66189;49.000;11.640;2023-02-10T08:26:27;97879.38;;;-3.17;67.43
31775;BME280;66189;49.000;11.640;2023-02-10T08:28:27;97888.28;;;-2.69;67.24
31775;BME280;66189;49.000;11.640;2023-02-10T08:30:27;97886.69;;;-2.58;66.29
31775;BME280;66189;49.000;11.640;2023-02-10T08:32:28;97897.31;;;-2.35;65.25
31775;BME280;66189;49.000;11.640;2023-02-10T08:34:28;97902.72;;;-2.18;66.21
31775;BME280;66189;49.000;11.640;2023-02-10T08:36:29;97899.34;;;-2.06;65.52
31775;BME280;66189;49.000;11.640;2023-02-10T08:38:29;97905.19;;;-1.81;64.44
31775;BME280;66189;49.000;11.640;2023-02-10T08:40:31;97906.22;;;-1.70;64.39
31775;BME280;66189;49.000;11.640;2023-02-10T08:42:32;97905.53;;;-1.53;65.02
31775;BME280;66189;49.000;11.640;2023-02-10T08:44:33;97913.41;;;-1.30;63.97
31775;BME280;66189;49.000;11.640;2023-02-10T08:46:34;97918.84;;;-1.36;62.90
31775;BME280;66189;49.000;11.640;2023-02-10T08:48:34;97917.38;;;-1.03;63.15
31775;BME280;66189;49.000;11.640;2023-02-10T08:50:35;97917.56;;;-0.81;61.97
31775;BME280;66189;49.000;11.640;2023-02-10T08:52:35;97925.31;;;-0.63;61.46
31775;BME280;66189;49.000;11.640;2023-02-10T08:54:36;97919.47;;;-0.65;60.63
31775;BME280;66189;49.000;11.640;2023-02-10T08:56:36;97924.59;;;-0.58;60.20
31775;BME280;66189;49.000;11.640;2023-02-10T08:58:37;97929.94;;;-0.41;60.05
31775;BME280;66189;49.000;11.640;2023-02-10T09:00:37;97932.50;;;-0.46;60.61
31775;BME280;66189;49.000;11.640;2023-02-10T09:02:38;97928.69;;;-0.22;59.64
31775;BME280;66189;49.000;11.640;2023-02-10T09:04:39;97935.47;;;0.03;58.38
31775;BME280;66189;49.000;11.640;2023-02-10T09:06:40;97935.53;;;-0.09;59.11
31775;BME280;66189;49.000;11.640;2023-02-10T09:08:44;97929.59;;;0.18;58.35
31775;BME280;66189;49.000;11.640;2023-02-10T09:10:45;97939.63;;;0.33;57.27
31775;BME280;66189;49.000;11.640;2023-02-10T09:12:46;97932.72;;;0.49;57.99
31775;BME280;66189;49.000;11.640;2023-02-10T09:14:48;97938.22;;;0.64;57.10
31775;BME280;66189;49.000;11.640;2023-02-10T09:16:48;97945.28;;;0.98;56.89
31775;BME280;66189;49.000;11.640;2023-02-10T09:18:50;97938.69;;;1.00;56.19
31775;BME280;66189;49.000;11.640;2023-02-10T09:20:50;97947.63;;;1.16;56.14
31775;BME280;66189;49.000;11.640;2023-02-10T09:22:51;97929.94;;;1.22;55.58
31775;BME280;66189;49.000;11.640;2023-02-10T09:24:52;97941.84;;;1.41;55.69
31775;BME280;66189;49.000;11.640;2023-02-10T09:26:54;97941.09;;;1.46;54.74
31775;BME280;66189;49.000;11.640;2023-02-10T09:28:54;97946.72;;;1.55;55.19
31775;BME280;66189;49.000;11.640;2023-02-10T09:30:55;97940.78;;;1.70;54.67
31775;BME280;66189;49.000;11.640;2023-02-10T09:32:55;97945.19;;;1.86;54.52
31775;BME280;66189;49.000;11.640;2023-02-10T09:34:55;97948.41;;;1.88;54.11
31775;BME280;66189;49.000;11.640;2023-02-10T09:36:56;97948.41;;;2.21;53.70
31775;BME280;66189;49.000;11.640;2023-02-10T09:38:58;97936.78;;;1.94;54.60
31775;BME280;66189;49.000;11.640;2023-02-10T09:41:39;97936.53;;;1.96;54.68
31775;BME280;66189;49.000;11.640;2023-02-10T09:45:53;97939.16;;;2.23;53.98
31775;BME280;66189;49.000;11.640;2023-02-10T09:50:51;97929.09;;;1.98;54.05
31775;BME280;66189;49.000;11.640;2023-02-10T09:53:04;97933.38;;;2.37;54.64
31775;BME280;66189;49.000;11.640;2023-02-10T09:55:27;97922.69;;;2.26;54.59
31775;BME280;66189;49.000;11.640;2023-02-10T09:57:37;97925.88;;;2.66;55.54
31775;BME280;66189;49.000;11.640;2023-02-10T09:59:41;97920.31;;;2.67;53.70
31775;BME280;66189;49.000;11.640;2023-02-10T10:01:46;97909.94;;;2.66;52.78
31775;BME280;66189;49.000;11.640;2023-02-10T10:04:01;97913.47;;;2.82;53.08
31775;BME280;66189;49.000;11.640;2023-02-10T10:08:27;97919.22;;;2.69;53.81
31775;BME280;66189;49.000;11.640;2023-02-10T10:10:39;97924.59;;;2.74;54.35
31775;BME280;66189;49.000;11.640;2023-02-10T10:12:43;97930.16;;;2.72;53.38
31775;BME280;66189;49.000;11.640;2023-02-10T10:14:44;97934.44;;;3.31;52.15
31775;BME280;66189;49.000;11.640;2023-02-10T10:19:03;97932.66;;;3.73;52.39
31775;BME280;66189;49.000;11.640;2023-02-10T10:21:15;97932.94;;;3.82;51.28
31775;BME280;66189;49.000;11.640;2023-02-10T10:23:30;97941.50;;;4.04;52.15
31775;BME280;66189;49.000;11.640;2023-02-10T10:29:55;97934.25;;;3.74;50.81
31775;BME280;66189;49.000;11.640;2023-02-10T10:32:14;97933.75;;;4.18;52.79
31775;BME280;66189;49.000;11.640;2023-02-10T10:34:21;97938.56;;;4.32;51.51
31775;BME280;66189;49.000;11.640;2023-02-10T10:36:33;97937.75;;;4.41;51.92
31775;BME280;66189;49.000;11.640;2023-02-10T10:38:37;97939.09;;;4.39;49.84
31775;BME280;66189;49.000;11.640;2023-02-10T10:40:40;97932.69;;;4.40;50.44
31775;BME280;66189;49.000;11.640;2023-02-10T10:42:54;97930.84;;;4.30;50.73
31775;BME280;66189;49.000;11.640;2023-02-10T10:45:06;97922.81;;;4.51;51.45
31775;BME280;66189;49.000;11.640;2023-02-10T10:47:15;97928.91;;;4.61;50.38
31775;BME280;66189;49.000;11.640;2023-02-10T10:49:17;97920.72;;;5.28;49.74
31775;BME280;66189;49.000;11.640;2023-02-10T10:51:17;97913.25;;;5.75;48.51
31775;BME280;66189;49.000;11.640;2023-02-10T10:53:38;97921.13;;;5.96;49.01
31775;BME280;66189;49.000;11.640;2023-02-10T10:55:42;97924.75;;;6.15;47.04
31775;BME280;66189;49.000;11.640;2023-02-10T10:57:44;97925.56;;;6.45;45.84
31775;BME280;66189;49.000;11.640;2023-02-10T11:00:13;97925.47;;;6.26;45.32
31775;BME280;66189;49.000;11.640;2023-02-10T11:02:18;97914.69;;;6.36;45.73
31775;BME280;66189;49.000;11.640;2023-02-10T11:04:22;97910.34;;;5.72;45.36
31775;BME280;66189;49.000;11.640;2023-02-10T11:06:23;97907.81;;;5.91;45.92
31775;BME280;66189;49.000;11.640;2023-02-10T11:08:27;97901.75;;;5.35;48.32
31775;BME280;66189;49.000;11.640;2023-02-10T11:10:48;97896.09;;;5.81;47.41
31775;BME280;66189;49.000;11.640;2023-02-10T11:12:48;97896.44;;;6.14;46.92
31775;BME280;66189;49.000;11.640;2023-02-10T11:14:51;97894.75;;;5.84;47.46
31775;BME280;66189;49.000;11.640;2023-02-10T11:16:57;97893.38;;;6.55;47.07
31775;BME280;66189;49.000;11.640;2023-02-10T11:19:01;97886.44;;;7.03;44.24
31775;BME280;66189;49.000;11.640;2023-02-10T11:21:06;97893.91;;;5.88;45.21